sensor_id;sensor_type;location;lat;lon;timestamp;pressure;altitude;pressure_sealevel;temperature;humidity
31005;BME280;17676;52.254;4.490;2023-03-18T00:01:05;100509.13;;;11.40;100.00
31005;BME280;17676;52.254;4.490;2023-03-18T00:03:33;100509.53;;;11.37;100.00
31005;BME280;17676;52.254;4.490;2023-03-18T00:06:08;100506.69;;;11.32;100.00
31005;BME280;17676;52.254;4.490;2023-03-18T00:08:36;100515.88;;;11.31;100.00
31005;BME280;17676;52.254;4.490;2023-03-18T00:11:02;100515.88;;;11.31;100.00
31005;BME280;17676;52.254;4.490;2023-03-18T00:13:30;100515.44;;;11.34;100.00
31005;BME280;17676;52.254;4.490;2023-03-18T00:15:58;100519.16;;;11.33;100.00
31005;BME280;17676;52.254;4.490;2023-03-18T00:18:23;100513.00;;;11.26;100.00
31005;BME280;17676;52.254;4.490;2023-03-18T00:20:49;100515.03;;;11.31;100.00
31005;BME280;17676;52.254;4.490;2023-03-18T00:23:15;100527.97;;;11.29;100.00
31005;BME280;17676;52.254;4.490;2023-03-18T00:25:42;100516.84;;;11.12;100.00
31005;BME280;17676;52.254;4.490;2023-03-18T00:28:10;100527.69;;;11.12;100.00
31005;BME280;17676;52.254;4.490;2023-03-18T00:30:37;100517.00;;;11.17;100.00
31005;BME280;17676;52.254;4.490;2023-03-18T00:33:04;100518.50;;;11.13;100.00
31005;BME280;17676;52.254;4.490;2023-03-18T00:35:30;100518.97;;;11.04;100.00
31005;BME280;17676;52.254;4.490;2023-03-18T00:37:56;100521.94;;;11.02;100.00
31005;BME280;17676;52.254;4.490;2023-03-18T00:40:23;100517.38;;;10.96;100.00
31005;BME280;17676;52.254;4.490;2023-03-18T00:42:55;100515.41;;;10.79;100.00
31005;BME280;17676;52.254;4.490;2023-03-18T00:45:35;100516.66;;;10.76;100.00
31005;BME280;17676;52.254;4.490;2023-03-18T00:48:02;100520.59;;;10.80;100.00
31005;BME280;17676;52.254;4.490;2023-03-18T00:50:28;100518.31;;;10.84;100.00
31005;BME280;17676;52.254;4.490;2023-03-18T00:52:53;100523.31;;;10.80;100.00
31005;BME280;17676;52.254;4.490;2023-03-18T00:55:19;100522.75;;;10.65;100.00
31005;BME280;17676;52.254;4.490;2023-03-18T00:57:45;100530.44;;;10.68;100.00
31005;BME280;17676;52.254;4.490;2023-03-18T01:00:11;100515.88;;;10.69;100.00
31005;BME280;17676;52.254;4.490;2023-03-18T01:02:37;100523.47;;;10.54;100.00
31005;BME280;17676;52.254;4.490;2023-03-18T01:05:03;100516.13;;;10.61;100.00
31005;BME280;17676;52.254;4.490;2023-03-18T01:07:28;100511.59;;;10.55;100.00
31005;BME280;17676;52.254;4.490;2023-03-18T01:09:54;100501.75;;;10.67;100.00
31005;BME280;17676;52.254;4.490;2023-03-18T01:12:20;100510.03;;;10.72;100.00
31005;BME280;17676;52.254;4.490;2023-03-18T01:14:45;100501.31;;;10.70;100.00
31005;BME280;17676;52.254;4.490;2023-03-18T01:17:11;100509.44;;;10.70;100.00
31005;BME280;17676;52.254;4.490;2023-03-18T01:19:37;100502.59;;;10.61;100.00
31005;BME280;17676;52.254;4.490;2023-03-18T01:22:03;100502.16;;;10.64;100.00
31005;BME280;17676;52.254;4.490;2023-03-18T01:24:29;100504.66;;;10.66;100.00
31005;BME280;17676;52.254;4.490;2023-03-18T01:26:54;100507.16;;;10.67;100.00
31005;BME280;17676;52.254;4.490;2023-03-18T01:29:21;100497.97;;;10.68;100.00
31005;BME280;17676;52.254;4.490;2023-03-18T01:31:48;100497.94;;;10.75;100.00
31005;BME280;17676;52.254;4.490;2023-03-18T01:34:15;100496.25;;;10.80;100.00
31005;BME280;17676;52.254;4.490;2023-03-18T01:36:41;100492.31;;;10.76;100.00
31005;BME280;17676;52.254;4.490;2023-03-18T01:39:07;100488.53;;;10.77;100.00
31005;BME280;17676;52.254;4.490;2023-03-18T01:41:34;100496.44;;;10.79;100.00
31005;BME280;17676;52.254;4.490;2023-03-18T01:44:01;100492.47;;;10.81;100.00
31005;BME280;17676;52.254;4.490;2023-03-18T01:46:36;100495.19;;;10.81;100.00
31005;BME280;17676;52.254;4.490;2023-03-18T01:49:08;100490.41;;;10.83;100.00
31005;BME280;17676;52.254;4.490;2023-03-18T01:51:35;100495.81;;;10.83;100.00
31005;BME280;17676;52.254;4.490;2023-03-18T01:54:04;100493.97;;;10.77;100.00
31005;BME280;17676;52.254;4.490;2023-03-18T01:56:32;100501.31;;;10.70;100.00
31005;BME280;17676;52.254;4.490;2023-03-18T01:59:00;100507.84;;;10.56;100.00
31005;BME280;17676;52.254;4.490;2023-03-18T02:01:44;100520.94;;;10.59;100.00
31005;BME280;17676;52.254;4.490;2023-03-18T02:04:13;100519.13;;;10.47;100.00
31005;BME280;17676;52.254;4.490;2023-03-18T02:06:39;100508.22;;;10.22;100.00
31005;BME280;17676;52.254;4.490;2023-03-18T02:09:05;100520.25;;;10.26;100.00
31005;BME280;17676;52.254;4.490;2023-03-18T02:11:34;100517.09;;;10.29;100.00
31005;BME280;17676;52.254;4.490;2023-03-18T02:14:00;100518.56;;;10.38;100.00
31005;BME280;17676;52.254;4.490;2023-03-18T02:16:37;100521.44;;;10.43;100.00
31005;BME280;17676;52.254;4.490;2023-03-18T02:24:54;100506.25;;;10.80;100.00
31005;BME280;17676;52.254;4.490;2023-03-18T02:27:25;100503.72;;;10.85;100.00
31005;BME280;17676;52.254;4.490;2023-03-18T02:29:53;100499.53;;;10.89;100.00
31005;BME280;17676;52.254;4.490;2023-03-18T02:32:25;100503.28;;;10.88;100.00
31005;BME280;17676;52.254;4.490;2023-03-18T02:35:04;100510.13;;;10.90;100.00
31005;BME280;17676;52.254;4.490;2023-03-18T02:37:32;100508.03;;;10.92;100.00
31005;BME280;17676;52.254;4.490;2023-03-18T02:40:12;100506.38;;;10.91;100.00
31005;BME280;17676;52.254;4.490;2023-03-18T02:42:38;100502.44;;;10.87;100.00
31005;BME280;17676;52.254;4.490;2023-03-18T02:45:08;100507.66;;;10.89;100.00
31005;BME280;17676;52.254;4.490;2023-03-18T02:47:39;100503.63;;;10.98;100.00
31005;BME280;17676;52.254;4.490;2023-03-18T02:50:07;100512.59;;;10.98;100.00
31005;BME280;17676;52.254;4.490;2023-03-18T02:52:33;100504.69;;;10.97;100.00
31005;BME280;17676;52.254;4.490;2023-03-18T02:54:59;100500.69;;;10.99;100.00
31005;BME280;17676;52.254;4.490;2023-03-18T02:57:26;100506.13;;;10.99;100.00
31005;BME280;17676;52.254;4.490;2023-03-18T02:59:51;100509.09;;;10.91;100.00
31005;BME280;17676;52.254;4.490;2023-03-18T03:02:17;100502.22;;;10.89;100.00
31005;BME280;17676;52.254;4.490;2023-03-18T03:04:42;100517.81;;;10.93;100.00
31005;BME280;17676;52.254;4.490;2023-03-18T03:07:08;100514.72;;;10.90;100.00
31005;BME280;17676;52.254;4.490;2023-03-18T03:09:34;100523.88;;;10.89;100.00
31005;BME280;17676;52.254;4.490;2023-03-18T03:11:59;100520.59;;;10.80;100.00
31005;BME280;17676;52.254;4.490;2023-03-18T03:14:25;100527.38;;;10.96;100.00
31005;BME280;17676;52.254;4.490;2023-03-18T03:16:50;100525.84;;;11.06;100.00
31005;BME280;17676;52.254;4.490;2023-03-18T03:19:16;100529.78;;;11.10;100.00
31005;BME280;17676;52.254;4.490;2023-03-18T03:21:41;100532.72;;;11.09;100.00
31005;BME280;17676;52.254;4.490;2023-03-18T03:24:07;100530.38;;;11.12;100.00
31005;BME280;17676;52.254;4.490;2023-03-18T03:26:34;100531.44;;;11.11;100.00
31005;BME280;17676;52.254;4.490;2023-03-18T03:29:00;100529.31;;;11.13;100.00
31005;BME280;17676;52.254;4.490;2023-03-18T03:31:26;100532.66;;;11.15;100.00
31005;BME280;17676;52.254;4.490;2023-03-18T03:33:52;100529.53;;;11.12;100.00
31005;BME280;17676;52.254;4.490;2023-03-18T03:36:18;100538.28;;;11.14;100.00
31005;BME280;17676;52.254;4.490;2023-03-18T03:38:44;100530.59;;;11.11;100.00
31005;BME280;17676;52.254;4.490;2023-03-18T03:41:11;100533.25;;;11.17;100.00
31005;BME280;17676;52.254;4.490;2023-03-18T03:43:38;100534.69;;;11.20;100.00
31005;BME280;17676;52.254;4.490;2023-03-18T03:46:05;100543.66;;;11.20;100.00
31005;BME280;17676;52.254;4.490;2023-03-18T03:48:31;100541.56;;;11.22;100.00
31005;BME280;17676;52.254;4.490;2023-03-18T03:50:57;100540.53;;;11.23;100.00
31005;BME280;17676;52.254;4.490;2023-03-18T03:53:25;100554.28;;;11.22;100.00
31005;BME280;17676;52.254;4.490;2023-03-18T03:55:51;100549.28;;;11.19;100.00
31005;BME280;17676;52.254;4.490;2023-03-18T03:58:18;100553.91;;;11.18;100.00
31005;BME280;17676;52.254;4.490;2023-03-18T04:00:44;100554.72;;;11.19;100.00
31005;BME280;17676;52.254;4.490;2023-03-18T04:03:09;100560.19;;;11.12;100.00
31005;BME280;17676;52.254;4.490;2023-03-18T04:05:36;100569.56;;;11.10;100.00
31005;BME280;17676;52.254;4.490;2023-03-18T04:08:02;100565.84;;;11.04;100.00
31005;BME280;17676;52.254;4.490;2023-03-18T04:10:27;100570.22;;;11.05;100.00
31005;BME280;17676;52.254;4.490;2023-03-18T04:12:53;100565.22;;;11.09;100.00
31005;BME280;17676;52.254;4.490;2023-03-18T04:15:20;100571.47;;;11.03;100.00
31005;BME280;17676;52.254;4.490;2023-03-18T04:17:50;100573.13;;;11.10;100.00
31005;BME280;17676;52.254;4.490;2023-03-18T04:20:16;100571.91;;;11.06;100.00
31005;BME280;17676;52.254;4.490;2023-03-18T04:22:44;100576.44;;;11.12;100.00
31005;BME280;17676;52.254;4.490;2023-03-18T04:25:13;100578.03;;;11.20;100.00
31005;BME280;17676;52.254;4.490;2023-03-18T04:27:41;100575.09;;;11.21;100.00
31005;BME280;17676;52.254;4.490;2023-03-18T04:30:08;100573.44;;;11.20;100.00
31005;BME280;17676;52.254;4.490;2023-03-18T04:32:34;100569.75;;;11.15;100.00
31005;BME280;17676;52.254;4.490;2023-03-18T04:35:00;100574.91;;;11.23;100.00
31005;BME280;17676;52.254;4.490;2023-03-18T04:37:25;100567.72;;;11.10;100.00
31005;BME280;17676;52.254;4.490;2023-03-18T04:39:51;100580.63;;;11.08;100.00
31005;BME280;17676;52.254;4.490;2023-03-18T04:42:16;100572.72;;;11.07;100.00
31005;BME280;17676;52.254;4.490;2023-03-18T04:44:42;100573.97;;;11.04;100.00
31005;BME280;17676;52.254;4.490;2023-03-18T04:47:09;100570.56;;;11.15;100.00
31005;BME280;17676;52.254;4.490;2023-03-18T04:49:35;100561.00;;;11.13;100.00
31005;BME280;17676;52.254;4.490;2023-03-18T04:52:03;100561.78;;;11.20;100.00
31005;BME280;17676;52.254;4.490;2023-03-18T04:54:28;100565.53;;;11.19;100.00
31005;BME280;17676;52.254;4.490;2023-03-18T04:56:54;100569.16;;;11.13;100.00
31005;BME280;17676;52.254;4.490;2023-03-18T04:59:19;100575.56;;;11.18;100.00
31005;BME280;17676;52.254;4.490;2023-03-18T05:01:45;100575.09;;;11.21;100.00
31005;BME280;17676;52.254;4.490;2023-03-18T05:04:10;100569.53;;;11.16;100.00
31005;BME280;17676;52.254;4.490;2023-03-18T05:06:36;100574.94;;;11.16;100.00
31005;BME280;17676;52.254;4.490;2023-03-18T05:09:02;100576.44;;;11.12;100.00
31005;BME280;17676;52.254;4.490;2023-03-18T05:11:29;100571.63;;;11.14;100.00
31005;BME280;17676;52.254;4.490;2023-03-18T05:13:55;100571.00;;;11.12;100.00
31005;BME280;17676;52.254;4.490;2023-03-18T05:16:21;100569.94;;;11.13;100.00
31005;BME280;17676;52.254;4.490;2023-03-18T05:18:47;100581.47;;;11.09;100.00
31005;BME280;17676;52.254;4.490;2023-03-18T05:21:13;100581.88;;;11.06;100.00
31005;BME280;17676;52.254;4.490;2023-03-18T05:23:41;100589.78;;;11.07;100.00
31005;BME280;17676;52.254;4.490;2023-03-18T05:26:07;100580.06;;;10.93;100.00
31005;BME280;17676;52.254;4.490;2023-03-18T05:28:34;100576.09;;;11.02;100.00
31005;BME280;17676;52.254;4.490;2023-03-18T05:31:00;100569.66;;;10.97;100.00
31005;BME280;17676;52.254;4.490;2023-03-18T05:33:25;100571.22;;;11.11;100.00
31005;BME280;17676;52.254;4.490;2023-03-18T05:35:51;100578.97;;;11.07;100.00
31005;BME280;17676;52.254;4.490;2023-03-18T05:38:17;100572.22;;;11.16;100.00
31005;BME280;17676;52.254;4.490;2023-03-18T05:40:42;100560.19;;;11.12;100.00
31005;BME280;17676;52.254;4.490;2023-03-18T05:43:08;100573.97;;;11.04;100.00
31005;BME280;17676;52.254;4.490;2023-03-18T05:45:35;100578.56;;;11.04;100.00
31005;BME280;17676;52.254;4.490;2023-03-18T05:48:01;100583.97;;;11.04;100.00
31005;BME280;17676;52.254;4.490;2023-03-18T05:50:33;100582.16;;;10.98;100.00
31005;BME280;17676;52.254;4.490;2023-03-18T05:53:00;100578.22;;;10.94;100.00
31005;BME280;17676;52.254;4.490;2023-03-18T05:55:26;100581.50;;;11.02;100.00
31005;BME280;17676;52.254;4.490;2023-03-18T05:57:53;100585.44;;;11.06;100.00
31005;BME280;17676;52.254;4.490;2023-03-18T06:00:19;100572.06;;;11.11;100.00
31005;BME280;17676;52.254;4.490;2023-03-18T06:02:45;100579.13;;;11.12;100.00
31005;BME280;17676;52.254;4.490;2023-03-18T06:05:11;100584.75;;;11.11;100.00
31005;BME280;17676;52.254;4.490;2023-03-18T06:07:37;100586.19;;;11.13;100.00
31005;BME280;17676;52.254;4.490;2023-03-18T06:10:03;100593.06;;;11.16;100.00
31005;BME280;17676;52.254;4.490;2023-03-18T06:12:28;100580.13;;;11.18;100.00
31005;BME280;17676;52.254;4.490;2023-03-18T06:14:54;100582.81;;;11.24;100.00
31005;BME280;17676;52.254;4.490;2023-03-18T06:17:20;100584.41;;;11.32;100.00
31005;BME280;17676;52.254;4.490;2023-03-18T06:19:45;100585.41;;;11.37;100.00
31005;BME280;17676;52.254;4.490;2023-03-18T06:22:13;100592.91;;;11.42;100.00
31005;BME280;17676;52.254;4.490;2023-03-18T06:24:39;100606.38;;;11.48;100.00
31005;BME280;17676;52.254;4.490;2023-03-18T06:27:06;100616.28;;;11.36;100.00
31005;BME280;17676;52.254;4.490;2023-03-18T06:29:32;100625.38;;;11.48;100.00
31005;BME280;17676;52.254;4.490;2023-03-18T06:31:57;100625.41;;;11.42;100.00
31005;BME280;17676;52.254;4.490;2023-03-18T06:34:23;100626.69;;;11.39;100.00
31005;BME280;17676;52.254;4.490;2023-03-18T06:36:49;100627.91;;;11.43;100.00
31005;BME280;17676;52.254;4.490;2023-03-18T06:39:15;100632.09;;;11.39;100.00
31005;BME280;17676;52.254;4.490;2023-03-18T06:41:40;100636.19;;;11.48;100.00
31005;BME280;17676;52.254;4.490;2023-03-18T06:44:06;100634.28;;;11.55;100.00
31005;BME280;17676;52.254;4.490;2023-03-18T06:46:32;100632.28;;;11.75;100.00
31005;BME280;17676;52.254;4.490;2023-03-18T06:48:57;100638.88;;;11.86;100.00
31005;BME280;17676;52.254;4.490;2023-03-18T06:51:23;100645.44;;;11.96;100.00
31005;BME280;17676;52.254;4.490;2023-03-18T06:53:49;100656.59;;;12.06;100.00
31005;BME280;17676;52.254;4.490;2023-03-18T06:56:15;100649.81;;;11.73;100.00
31005;BME280;17676;52.254;4.490;2023-03-18T06:58:41;100661.91;;;11.70;100.00
31005;BME280;17676;52.254;4.490;2023-03-18T07:01:07;100652.81;;;11.65;100.00
31005;BME280;17676;52.254;4.490;2023-03-18T07:03:33;100648.19;;;11.65;100.00
31005;BME280;17676;52.254;4.490;2023-03-18T07:06:00;100649.06;;;11.59;100.00
31005;BME280;17676;52.254;4.490;2023-03-18T07:08:26;100653.84;;;11.64;100.00
31005;BME280;17676;52.254;4.490;2023-03-18T07:10:53;100651.06;;;11.70;100.00
31005;BME280;17676;52.254;4.490;2023-03-18T07:13:19;100654.13;;;11.80;100.00
31005;BME280;17676;52.254;4.490;2023-03-18T07:15:45;100663.44;;;11.91;100.00
31005;BME280;17676;52.254;4.490;2023-03-18T07:18:11;100654.19;;;11.74;100.00
31005;BME280;17676;52.254;4.490;2023-03-18T07:20:36;100659.28;;;11.88;100.00
31005;BME280;17676;52.254;4.490;2023-03-18T07:23:02;100663.22;;;11.92;100.00
31005;BME280;17676;52.254;4.490;2023-03-18T07:25:28;100664.59;;;12.01;100.00
31005;BME280;17676;52.254;4.490;2023-03-18T07:27:56;100656.66;;;12.00;100.00
31005;BME280;17676;52.254;4.490;2023-03-18T07:30:21;100663.72;;;12.07;100.00
31005;BME280;17676;52.254;4.490;2023-03-18T07:32:47;100660.00;;;12.02;100.00
31005;BME280;17676;52.254;4.490;2023-03-18T07:35:17;100667.19;;;12.14;100.00
31005;BME280;17676;52.254;4.490;2023-03-18T07:37:42;100667.03;;;12.09;100.00
31005;BME280;17676;52.254;4.490;2023-03-18T07:40:10;100660.06;;;11.95;100.00
31005;BME280;17676;52.254;4.490;2023-03-18T07:42:36;100652.53;;;11.97;100.00
31005;BME280;17676;52.254;4.490;2023-03-18T07:45:03;100663.53;;;12.27;100.00
31005;BME280;17676;52.254;4.490;2023-03-18T07:47:29;100651.25;;;12.42;100.00
31005;BME280;17676;52.254;4.490;2023-03-18T07:49:54;100663.13;;;12.66;100.00
31005;BME280;17676;52.254;4.490;2023-03-18T07:52:20;100668.53;;;12.66;100.00
31005;BME280;17676;52.254;4.490;2023-03-18T07:54:46;100656.09;;;12.58;100.00
31005;BME280;17676;52.254;4.490;2023-03-18T07:57:12;100664.03;;;12.78;100.00
31005;BME280;17676;52.254;4.490;2023-03-18T07:59:38;100667.94;;;12.82;100.00
31005;BME280;17676;52.254;4.490;2023-03-18T08:02:03;100660.31;;;12.54;100.00
31005;BME280;17676;52.254;4.490;2023-03-18T08:04:31;100660.81;;;12.45;100.00
31005;BME280;17676;52.254;4.490;2023-03-18T08:06:57;100660.00;;;12.62;100.00
31005;BME280;17676;52.254;4.490;2023-03-18T08:09:23;100657.59;;;12.54;100.00
31005;BME280;17676;52.254;4.490;2023-03-18T08:11:48;100653.53;;;12.63;100.00
31005;BME280;17676;52.254;4.490;2023-03-18T08:14:14;100655.25;;;12.94;100.00
31005;BME280;17676;52.254;4.490;2023-03-18T08:16:41;100662.56;;;13.11;100.00
31005;BME280;17676;52.254;4.490;2023-03-18T08:19:06;100669.31;;;13.38;100.00
31005;BME280;17676;52.254;4.490;2023-03-18T08:21:32;100668.09;;;13.34;100.00
31005;BME280;17676;52.254;4.490;2023-03-18T08:23:58;100692.44;;;13.59;100.00
31005;BME280;17676;52.254;4.490;2023-03-18T08:26:23;100682.44;;;13.41;100.00
31005;BME280;17676;52.254;4.490;2023-03-18T08:28:52;100699.63;;;13.53;100.00
31005;BME280;17676;52.254;4.490;2023-03-18T08:31:17;100682.78;;;13.45;100.00
31005;BME280;17676;52.254;4.490;2023-03-18T08:33:44;100698.69;;;13.59;100.00
31005;BME280;17676;52.254;4.490;2023-03-18T08:36:10;100688.53;;;13.55;100.00
31005;BME280;17676;52.254;4.490;2023-03-18T08:38:36;100699.69;;;14.75;100.00
31005;BME280;17676;52.254;4.490;2023-03-18T08:41:02;100699.47;;;16.17;100.00
31005;BME280;17676;52.254;4.490;2023-03-18T08:43:31;100725.75;;;17.75;100.00
31005;BME280;17676;52.254;4.490;2023-03-18T08:45:57;100751.47;;;18.27;100.00
31005;BME280;17676;52.254;4.490;2023-03-18T08:48:23;100757.03;;;18.63;100.00
31005;BME280;17676;52.254;4.490;2023-03-18T08:50:50;100776.72;;;18.02;100.00
31005;BME280;17676;52.254;4.490;2023-03-18T08:53:17;100780.91;;;17.62;100.00
31005;BME280;17676;52.254;4.490;2023-03-18T08:55:45;100779.78;;;16.98;100.00
31005;BME280;17676;52.254;4.490;2023-03-18T08:58:13;100768.69;;;18.49;100.00
31005;BME280;17676;52.254;4.490;2023-03-18T09:00:40;100783.72;;;18.78;100.00
31005;BME280;17676;52.254;4.490;2023-03-18T09:03:07;100797.84;;;19.38;100.00
31005;BME280;17676;52.254;4.490;2023-03-18T09:05:35;100807.22;;;20.19;100.00
31005;BME280;17676;52.254;4.490;2023-03-18T09:08:04;100803.56;;;19.98;100.00
31005;BME280;17676;52.254;4.490;2023-03-18T09:10:37;100833.31;;;20.16;100.00
31005;BME280;17676;52.254;4.490;2023-03-18T09:13:03;100821.91;;;19.73;100.00
31005;BME280;17676;52.254;4.490;2023-03-18T09:15:32;100833.41;;;19.23;100.00
31005;BME280;17676;52.254;4.490;2023-03-18T09:18:02;100829.38;;;18.94;100.00
31005;BME280;17676;52.254;4.490;2023-03-18T09:20:29;100821.47;;;19.02;100.00
31005;BME280;17676;52.254;4.490;2023-03-18T09:23:07;100807.06;;;17.15;100.00
31005;BME280;17676;52.254;4.490;2023-03-18T09:25:33;100806.25;;;17.14;100.00
31005;BME280;17676;52.254;4.490;2023-03-18T09:28:03;100804.50;;;18.16;100.00
31005;BME280;17676;52.254;4.490;2023-03-18T09:30:31;100813.09;;;17.98;100.00
31005;BME280;17676;52.254;4.490;2023-03-18T09:32:58;100811.25;;;17.01;100.00
31005;BME280;17676;52.254;4.490;2023-03-18T09:35:27;100817.44;;;17.94;100.00
31005;BME280;17676;52.254;4.490;2023-03-18T09:37:55;100831.59;;;17.86;100.00
31005;BME280;17676;52.254;4.490;2023-03-18T09:40:27;100831.34;;;17.66;100.00
31005;BME280;17676;52.254;4.490;2023-03-18T09:46:24;100827.78;;;17.44;100.00
31005;BME280;17676;52.254;4.490;2023-03-18T09:49:07;100821.56;;;16.61;100.00
31005;BME280;17676;52.254;4.490;2023-03-18T09:51:56;100813.97;;;17.77;100.00
31005;BME280;17676;52.254;4.490;2023-03-18T09:54:39;100815.47;;;18.69;100.00
31005;BME280;17676;52.254;4.490;2023-03-18T09:57:34;100829.66;;;18.97;100.00
31005;BME280;17676;52.254;4.490;2023-03-18T10:00:08;100827.91;;;19.23;100.00
31005;BME280;17676;52.254;4.490;2023-03-18T10:02:44;100847.16;;;20.46;100.00
31005;BME280;17676;52.254;4.490;2023-03-18T10:05:18;100859.84;;;20.92;100.00
31005;BME280;17676;52.254;4.490;2023-03-18T10:07:53;100850.13;;;20.40;100.00
31005;BME280;17676;52.254;4.490;2023-03-18T10:10:37;100861.25;;;17.51;100.00
31005;BME280;17676;52.254;4.490;2023-03-18T10:13:19;100844.44;;;17.42;100.00
31005;BME280;17676;52.254;4.490;2023-03-18T10:15:53;100813.09;;;17.98;100.00
31005;BME280;17676;52.254;4.490;2023-03-18T10:18:26;100823.72;;;18.74;100.00
31005;BME280;17676;52.254;4.490;2023-03-18T10:21:16;100833.03;;;17.93;100.00
31005;BME280;17676;52.254;4.490;2023-03-18T10:24:07;100840.59;;;18.08;100.00
31005;BME280;17676;52.254;4.490;2023-03-18T10:26:40;100826.22;;;17.96;100.00
31005;BME280;17676;52.254;4.490;2023-03-18T10:32:01;100842.88;;;18.16;100.00
31005;BME280;17676;52.254;4.490;2023-03-18T10:39:59;100816.91;;;16.78;100.00
31005;BME280;17676;52.254;4.490;2023-03-18T10:42:27;100821.94;;;16.86;100.00
31005;BME280;17676;52.254;4.490;2023-03-18T10:45:08;100810.13;;;16.64;100.00
31005;BME280;17676;52.254;4.490;2023-03-18T10:47:43;100827.03;;;16.77;100.00
31005;BME280;17676;52.254;4.490;2023-03-18T10:50:20;100831.00;;;17.24;100.00
31005;BME280;17676;52.254;4.490;2023-03-18T10:55:19;100819.94;;;16.98;100.00
31005;BME280;17676;52.254;4.490;2023-03-18T10:57:49;100811.75;;;16.48;100.00
31005;BME280;17676;52.254;4.490;2023-03-18T11:00:25;100824.88;;;16.63;100.00
31005;BME280;17676;52.254;4.490;2023-03-18T11:02:52;100823.53;;;16.49;100.00
31005;BME280;17676;52.254;4.490;2023-03-18T11:05:35;100812.28;;;16.62;100.00
31005;BME280;17676;52.254;4.490;2023-03-18T11:08:06;100807.63;;;16.46;100.00
31005;BME280;17676;52.254;4.490;2023-03-18T11:10:38;100804.31;;;16.44;100.00
31005;BME280;17676;52.254;4.490;2023-03-18T11:13:17;100828.94;;;16.32;100.00
31005;BME280;17676;52.254;4.490;2023-03-18T11:15:53;100820.50;;;16.34;100.00
31005;BME280;17676;52.254;4.490;2023-03-18T11:18:24;100821.50;;;16.28;100.00
31005;BME280;17676;52.254;4.490;2023-03-18T11:20:55;100816.03;;;16.28;100.00
31005;BME280;17676;52.254;4.490;2023-03-18T11:23:32;100832.31;;;16.51;100.00
31005;BME280;17676;52.254;4.490;2023-03-18T11:26:46;100822.66;;;16.32;100.00
31005;BME280;17676;52.254;4.490;2023-03-18T11:29:20;100822.75;;;16.37;100.00
31005;BME280;17676;52.254;4.490;2023-03-18T11:31:53;100825.41;;;16.48;100.00
31005;BME280;17676;52.254;4.490;2023-03-18T11:34:23;100839.28;;;16.30;100.00
31005;BME280;17676;52.254;4.490;2023-03-18T11:36:57;100844.59;;;16.37;100.00
31005;BME280;17676;52.254;4.490;2023-03-18T11:39:29;100845.56;;;16.42;100.00
31005;BME280;17676;52.254;4.490;2023-03-18T11:41:57;100834.47;;;16.49;100.00
31005;BME280;17676;52.254;4.490;2023-03-18T11:44:27;100832.25;;;16.34;100.00
31005;BME280;17676;52.254;4.490;2023-03-18T11:47:04;100826.34;;;16.26;100.00
31005;BME280;17676;52.254;4.490;2023-03-18T11:49:31;100823.16;;;16.29;100.00
31005;BME280;17676;52.254;4.490;2023-03-18T11:52:50;100825.09;;;16.17;100.00
31005;BME280;17676;52.254;4.490;2023-03-18T11:58:15;100801.53;;;16.27;100.00
31005;BME280;17676;52.254;4.490;2023-03-18T12:04:01;100792.81;;;16.14;100.00
31005;BME280;17676;52.254;4.490;2023-03-18T12:06:41;100810.97;;;16.36;100.00
31005;BME280;17676;52.254;4.490;2023-03-18T12:14:39;100795.09;;;16.83;100.00
31005;BME280;17676;52.254;4.490;2023-03-18T12:25:42;100800.66;;;15.54;100.00
31005;BME280;17676;52.254;4.490;2023-03-18T12:34:02;100804.63;;;16.31;100.00
31005;BME280;17676;52.254;4.490;2023-03-18T12:36:59;100805.03;;;15.95;100.00
31005;BME280;17676;52.254;4.490;2023-03-18T12:39:55;100801.25;;;16.57;100.00
31005;BME280;17676;52.254;4.490;2023-03-18T12:47:37;100797.88;;;16.66;100.00
31005;BME280;17676;52.254;4.490;2023-03-18T12:52:58;100815.94;;;16.84;100.00
31005;BME280;17676;52.254;4.490;2023-03-18T12:55:29;100808.50;;;17.39;100.00
31005;BME280;17676;52.254;4.490;2023-03-18T13:02:59;100808.13;;;16.76;100.00
31005;BME280;17676;52.254;4.490;2023-03-18T13:05:41;100804.97;;;16.67;100.00
31005;BME280;17676;52.254;4.490;2023-03-18T13:10:41;100802.69;;;17.14;100.00
31005;BME280;17676;52.254;4.490;2023-03-18T13:13:11;100813.44;;;16.49;100.00
31005;BME280;17676;52.254;4.490;2023-03-18T13:15:50;100801.28;;;16.29;100.00
31005;BME280;17676;52.254;4.490;2023-03-18T13:20:50;100788.09;;;16.54;100.00
31005;BME280;17676;52.254;4.490;2023-03-18T13:26:29;100807.28;;;16.92;100.00
31005;BME280;17676;52.254;4.490;2023-03-18T13:34:39;100819.53;;;17.65;100.00
31005;BME280;17676;52.254;4.490;2023-03-18T13:42:35;100798.78;;;17.69;100.00
31005;BME280;17676;52.254;4.490;2023-03-18T13:47:56;100802.22;;;17.38;100.00
31005;BME280;17676;52.254;4.490;2023-03-18T13:52:53;100793.41;;;17.15;100.00
31005;BME280;17676;52.254;4.490;2023-03-18T13:57:57;100787.69;;;16.78;100.00
31005;BME280;17676;52.254;4.490;2023-03-18T14:00:44;100783.13;;;16.84;100.00
31005;BME280;17676;52.254;4.490;2023-03-18T14:08:43;100782.81;;;16.64;100.00
31005;BME280;17676;52.254;4.490;2023-03-18T14:13:41;100753.09;;;16.51;100.00
31005;BME280;17676;52.254;4.490;2023-03-18T14:16:14;100776.66;;;16.57;100.00
31005;BME280;17676;52.254;4.490;2023-03-18T14:21:44;100755.72;;;16.62;100.00
31005;BME280;17676;52.254;4.490;2023-03-18T14:29:21;100751.78;;;16.09;100.00
31005;BME280;17676;52.254;4.490;2023-03-18T14:31:59;100761.03;;;16.08;100.00